createdAt,value
2018-07-24T00:00:24.048Z,100482
2018-07-24T00:02:52.899Z,100471
2018-07-24T00:05:22.489Z,100475
2018-07-24T00:07:52.076Z,100476
2018-07-24T00:10:20.921Z,100473
2018-07-24T00:12:49.768Z,100477
2018-07-24T00:15:18.630Z,100474
2018-07-24T00:17:47.480Z,100471
2018-07-24T00:20:16.315Z,100465
2018-07-24T00:22:45.151Z,100472
2018-07-24T00:25:13.996Z,100465
2018-07-24T00:27:42.835Z,100463
2018-07-24T00:30:11.685Z,100459
2018-07-24T00:32:40.524Z,100462
2018-07-24T00:35:09.368Z,100463
2018-07-24T00:37:38.216Z,100465
2018-07-24T00:40:07.050Z,100456
2018-07-24T00:42:35.897Z,100453
2018-07-24T00:45:04.750Z,100454
2018-07-24T00:47:33.600Z,100451
2018-07-24T00:50:02.427Z,100459
2018-07-24T00:52:31.281Z,100449
2018-07-24T00:55:00.135Z,100460
2018-07-24T00:57:28.974Z,100444
2018-07-24T00:59:58.561Z,100448
2018-07-24T01:02:27.399Z,100441
2018-07-24T01:04:56.241Z,100444
2018-07-24T01:07:25.086Z,100446
2018-07-24T01:09:53.941Z,100445
2018-07-24T01:12:23.520Z,100440
2018-07-24T01:14:52.362Z,100449
2018-07-24T01:17:21.209Z,100428
2018-07-24T01:19:50.049Z,100429
2018-07-24T01:22:18.884Z,100430
2018-07-24T01:24:47.734Z,100439
2018-07-24T01:27:16.572Z,100422
2018-07-24T01:29:45.417Z,100425
2018-07-24T01:32:14.250Z,100421
2018-07-24T01:34:43.093Z,100417
2018-07-24T01:37:11.932Z,100415
2018-07-24T01:39:41.524Z,100415
2018-07-24T01:42:10.379Z,100418
2018-07-24T01:44:39.216Z,100412
2018-07-24T01:47:08.057Z,100419
2018-07-24T01:49:36.900Z,100418
2018-07-24T01:52:06.501Z,100416
2018-07-24T01:54:36.095Z,100410
2018-07-24T01:57:04.945Z,100407
2018-07-24T01:59:33.793Z,100417
2018-07-24T02:02:03.380Z,100415
2018-07-24T02:04:32.233Z,100414
2018-07-24T02:07:01.068Z,100411
2018-07-24T02:09:29.912Z,100412
2018-07-24T02:11:58.754Z,100402
2018-07-24T02:14:28.337Z,100404
2018-07-24T02:16:57.185Z,100404
2018-07-24T02:19:26.033Z,100403
2018-07-24T02:21:54.888Z,100402
2018-07-24T02:24:23.723Z,100397
2018-07-24T02:26:52.571Z,100404
2018-07-24T02:29:21.419Z,100402
2018-07-24T02:31:50.325Z,100398
2018-07-24T02:34:19.117Z,100403
2018-07-24T02:36:47.957Z,100395
2018-07-24T02:39:16.794Z,100395
2018-07-24T02:41:45.632Z,100394
2018-07-24T02:44:15.072Z,100401
2018-07-24T02:46:43.923Z,100396
2018-07-24T02:49:12.753Z,100401
2018-07-24T02:51:41.604Z,100401
2018-07-24T02:54:10.452Z,100393
2018-07-24T02:56:39.297Z,100399
2018-07-24T02:59:08.881Z,100398
2018-07-24T03:01:37.778Z,100389
2018-07-24T03:04:06.551Z,100387
2018-07-24T03:06:35.386Z,100391
2018-07-24T03:09:04.233Z,100391
2018-07-24T03:11:33.072Z,100391
2018-07-24T03:14:01.918Z,100392
2018-07-24T03:16:30.754Z,100399
2018-07-24T03:18:59.602Z,100392
2018-07-24T03:21:28.443Z,100387
2018-07-24T03:23:57.283Z,100388
2018-07-24T03:26:26.130Z,100390
2018-07-24T03:28:54.979Z,100386
2018-07-24T03:31:23.827Z,100389
2018-07-24T03:33:52.660Z,100392
2018-07-24T03:36:22.251Z,100401
2018-07-24T03:38:51.108Z,100398
2018-07-24T03:41:19.952Z,100399
2018-07-24T03:43:48.792Z,100406
2018-07-24T03:46:17.974Z,100391
2018-07-24T03:48:46.811Z,100396
2018-07-24T03:51:16.394Z,100401
2018-07-24T03:53:45.231Z,100405
2018-07-24T03:56:14.085Z,100403
2018-07-24T03:58:42.937Z,100403
2018-07-24T04:01:11.780Z,100408
2018-07-24T04:03:40.628Z,100406
2018-07-24T04:06:09.481Z,100402
2018-07-24T04:08:38.329Z,100404
2018-07-24T04:11:07.189Z,100406
2018-07-24T04:13:36.031Z,100404
2018-07-24T04:16:04.880Z,100409
2018-07-24T04:18:33.719Z,100408
2018-07-24T04:21:03.303Z,100401
2018-07-24T04:23:32.154Z,100404
2018-07-24T04:26:00.999Z,100406
2018-07-24T04:28:29.884Z,100406
2018-07-24T04:30:58.735Z,100406
2018-07-24T04:33:27.539Z,100407
2018-07-24T04:35:56.383Z,100407
2018-07-24T04:38:25.237Z,100402
2018-07-24T04:40:54.086Z,100395
2018-07-24T04:43:22.935Z,100401
2018-07-24T04:45:51.777Z,100405
2018-07-24T04:48:20.655Z,100400
2018-07-24T04:50:49.466Z,100402
2018-07-24T04:53:18.314Z,100404
2018-07-24T04:55:47.160Z,100402
2018-07-24T04:58:16.013Z,100406
2018-07-24T05:00:44.845Z,100403
2018-07-24T05:03:14.487Z,100398
2018-07-24T05:05:43.290Z,100401
2018-07-24T05:08:12.116Z,100400
2018-07-24T05:10:40.961Z,100403
2018-07-24T05:13:09.818Z,100397
2018-07-24T05:15:39.417Z,100400
2018-07-24T05:18:08.264Z,100397
2018-07-24T05:20:37.104Z,100402
2018-07-24T05:23:06.685Z,100398
2018-07-24T05:25:35.525Z,100400
2018-07-24T05:28:04.376Z,100406
2018-07-24T05:30:33.229Z,100403
2018-07-24T05:33:02.086Z,100399
2018-07-24T05:35:30.915Z,100404
2018-07-24T05:37:59.762Z,100400
2018-07-24T05:40:28.622Z,100404
2018-07-24T05:42:57.476Z,100409
2018-07-24T05:45:27.052Z,100407
2018-07-24T05:47:55.893Z,100402
2018-07-24T05:50:25.475Z,100403
2018-07-24T05:52:54.313Z,100403
2018-07-24T05:55:23.161Z,100404
2018-07-24T05:57:52.001Z,100403
2018-07-24T06:00:20.840Z,100408
2018-07-24T06:02:49.679Z,100415
2018-07-24T06:05:18.516Z,100409
2018-07-24T06:07:47.384Z,100415
2018-07-24T06:10:16.228Z,100413
2018-07-24T06:12:45.816Z,100416
2018-07-24T06:15:14.656Z,100413
2018-07-24T06:17:43.511Z,100419
2018-07-24T06:20:13.096Z,100418
2018-07-24T06:22:41.953Z,100422
2018-07-24T06:25:10.801Z,100416
2018-07-24T06:27:40.377Z,100421
2018-07-24T06:30:09.251Z,100418
2018-07-24T06:32:38.096Z,100422
2018-07-24T06:35:06.996Z,100414
2018-07-24T06:37:35.805Z,100415
2018-07-24T06:40:04.646Z,100411
2018-07-24T06:42:33.483Z,100410
2018-07-24T06:45:02.333Z,100414
2018-07-24T06:47:31.179Z,100424
2018-07-24T06:50:00.031Z,100423
2018-07-24T06:52:28.869Z,100421
2018-07-24T06:54:58.296Z,100413
2018-07-24T06:57:27.883Z,100408
2018-07-24T06:59:56.728Z,100415
2018-07-24T07:02:25.569Z,100414
2018-07-24T07:04:55.199Z,100410
2018-07-24T07:07:23.983Z,100412
2018-07-24T07:09:52.836Z,100408
2018-07-24T07:12:21.689Z,100411
2018-07-24T07:14:50.535Z,100405
2018-07-24T07:17:20.135Z,100402
2018-07-24T07:19:49.721Z,100402
2018-07-24T07:22:18.559Z,100407
2018-07-24T07:24:47.400Z,100407
2018-07-24T07:27:16.238Z,100400
2018-07-24T07:29:45.082Z,100397
2018-07-24T07:32:13.939Z,100407
2018-07-24T07:34:42.770Z,100399
2018-07-24T07:37:11.609Z,100404
2018-07-24T07:39:40.450Z,100404
2018-07-24T07:42:09.296Z,100398
2018-07-24T07:44:38.146Z,100399
2018-07-24T07:47:07.738Z,100394
2018-07-24T07:49:36.590Z,100392
2018-07-24T07:52:05.441Z,100391
2018-07-24T07:54:35.030Z,100399
2018-07-24T07:57:03.880Z,100396
2018-07-24T07:59:32.729Z,100395
2018-07-24T08:02:01.577Z,100387
2018-07-24T08:04:30.407Z,100388
2018-07-24T08:06:59.256Z,100391
2018-07-24T08:09:28.110Z,100392
2018-07-24T08:11:56.945Z,100393
2018-07-24T08:14:26.531Z,100393
2018-07-24T08:16:55.374Z,100383
2018-07-24T08:19:24.222Z,100389
2018-07-24T08:21:53.060Z,100385
2018-07-24T08:24:21.904Z,100387
2018-07-24T08:26:50.756Z,100393
2018-07-24T08:29:19.603Z,100392
2018-07-24T08:31:48.458Z,100389
2018-07-24T08:34:17.309Z,100389
2018-07-24T08:36:46.165Z,100388
2018-07-24T08:39:15.023Z,100389
2018-07-24T08:41:43.873Z,100383
2018-07-24T08:44:12.716Z,100392
2018-07-24T08:46:41.576Z,100389
2018-07-24T08:49:10.448Z,100385
2018-07-24T08:51:39.263Z,100376
2018-07-24T08:54:08.238Z,100370
2018-07-24T08:56:36.956Z,100376
2018-07-24T08:59:06.545Z,100376
2018-07-24T09:01:35.400Z,100368
2018-07-24T09:04:04.244Z,100363
2018-07-24T09:06:33.082Z,100378
2018-07-24T09:09:01.929Z,100364
2018-07-24T09:11:30.774Z,100362
2018-07-24T09:13:59.623Z,100363
2018-07-24T09:16:29.201Z,100360
2018-07-24T09:18:58.041Z,100361
2018-07-24T09:21:26.892Z,100354
2018-07-24T09:23:55.760Z,100362
2018-07-24T09:26:24.595Z,100365
2018-07-24T09:28:53.445Z,100354
2018-07-24T09:31:22.285Z,100355
2018-07-24T09:33:51.135Z,100360
2018-07-24T09:36:19.980Z,100354
2018-07-24T09:38:48.824Z,100351
2018-07-24T09:41:17.661Z,100353
2018-07-24T09:43:46.498Z,100356
2018-07-24T09:46:15.354Z,100354
2018-07-24T09:48:44.194Z,100353
2018-07-24T09:51:13.808Z,100359
2018-07-24T09:53:42.670Z,100354
2018-07-24T09:56:12.242Z,100357
2018-07-24T09:58:41.080Z,100357
2018-07-24T10:01:10.673Z,100353
2018-07-24T10:03:39.507Z,100352
2018-07-24T10:06:08.346Z,100351
2018-07-24T10:08:37.192Z,100338
2018-07-24T10:11:06.078Z,100343
2018-07-24T10:13:34.883Z,100340
2018-07-24T10:16:03.718Z,100342
2018-07-24T10:18:32.571Z,100340
2018-07-24T10:21:01.416Z,100337
2018-07-24T10:23:30.265Z,100330
2018-07-24T10:25:59.128Z,100319
2018-07-24T10:28:27.973Z,100317
2018-07-24T10:30:56.808Z,100311
2018-07-24T10:33:25.644Z,100316
2018-07-24T10:35:55.239Z,100309
2018-07-24T10:38:24.089Z,100311
2018-07-24T10:40:52.937Z,100309
2018-07-24T10:43:21.774Z,100304
2018-07-24T10:45:50.632Z,100303
2018-07-24T10:48:19.462Z,100309
2018-07-24T10:50:48.320Z,100306
2018-07-24T10:53:17.166Z,100304
2018-07-24T10:55:46.018Z,100304
2018-07-24T10:58:14.853Z,100303
2018-07-24T11:00:43.736Z,100296
2018-07-24T11:03:12.557Z,100294
2018-07-24T11:05:42.140Z,100298
2018-07-24T11:08:11.576Z,100290
2018-07-24T11:10:40.412Z,100288
2018-07-24T11:13:09.249Z,100285
2018-07-24T11:15:38.116Z,100283
2018-07-24T11:18:06.947Z,100279
2018-07-24T11:20:35.804Z,100281
2018-07-24T11:23:04.755Z,100277
2018-07-24T11:25:33.463Z,100275
2018-07-24T11:28:02.305Z,100275
2018-07-24T11:30:31.158Z,100275
2018-07-24T11:33:00.738Z,100272
2018-07-24T11:35:29.644Z,100268
2018-07-24T11:37:59.142Z,100263
2018-07-24T11:40:27.995Z,100263
2018-07-24T11:42:56.831Z,100259
2018-07-24T11:45:25.665Z,100263
2018-07-24T11:47:54.505Z,100263
2018-07-24T11:50:23.365Z,100259
2018-07-24T11:52:52.199Z,100252
2018-07-24T11:55:21.786Z,100246
2018-07-24T11:57:50.648Z,100242
2018-07-24T12:00:19.476Z,100246
2018-07-24T12:02:48.328Z,100241
2018-07-24T12:05:17.174Z,100239
2018-07-24T12:07:46.080Z,100236
2018-07-24T12:10:14.874Z,100228
2018-07-24T12:12:43.730Z,100225
2018-07-24T12:15:12.635Z,100229
2018-07-24T12:17:41.429Z,100224
2018-07-24T12:20:10.288Z,100231
2018-07-24T12:22:39.125Z,100226
2018-07-24T12:25:08.002Z,100224
2018-07-24T12:27:36.825Z,100224
2018-07-24T12:30:05.676Z,100216
2018-07-24T12:32:34.555Z,100224
2018-07-24T12:35:03.366Z,100222
2018-07-24T12:37:32.211Z,100217
2018-07-24T12:40:01.052Z,100221
2018-07-24T12:42:30.642Z,100213
2018-07-24T12:44:59.473Z,100217
2018-07-24T12:47:28.312Z,100213
2018-07-24T12:49:57.146Z,100215
2018-07-24T12:52:26.016Z,100202
2018-07-24T12:54:54.840Z,100205
2018-07-24T12:57:23.678Z,100207
2018-07-24T12:59:52.527Z,100201
2018-07-24T13:02:21.373Z,100196
2018-07-24T13:04:50.222Z,100198
2018-07-24T13:07:19.082Z,100200
2018-07-24T13:09:47.899Z,100191
2018-07-24T13:12:16.740Z,100185
2018-07-24T13:14:45.583Z,100187
2018-07-24T13:17:14.416Z,100192
2018-07-24T13:19:43.996Z,100186
2018-07-24T13:22:12.826Z,100175
2018-07-24T13:24:41.728Z,100183
2018-07-24T13:27:10.500Z,100175
2018-07-24T13:29:40.094Z,100174
2018-07-24T13:32:09.773Z,100169
2018-07-24T13:34:38.515Z,100164
2018-07-24T13:37:07.370Z,100167
2018-07-24T13:39:36.218Z,100169
2018-07-24T13:42:05.058Z,100164
2018-07-24T13:44:34.648Z,100167
2018-07-24T13:47:03.481Z,100168
2018-07-24T13:49:32.326Z,100167
2018-07-24T13:52:01.182Z,100165
2018-07-24T13:54:30.053Z,100166
2018-07-24T13:56:58.863Z,100162
2018-07-24T13:59:27.735Z,100156
2018-07-24T14:01:56.569Z,100153
2018-07-24T14:04:25.410Z,100160
2018-07-24T14:06:54.249Z,100151
2018-07-24T14:09:23.100Z,100153
2018-07-24T14:11:51.947Z,100144
2018-07-24T14:14:20.812Z,100148
2018-07-24T14:16:49.654Z,100140
2018-07-24T14:19:18.496Z,100142
2018-07-24T14:21:47.440Z,100141
2018-07-24T14:24:16.182Z,100139
2018-07-24T14:26:45.030Z,100136
2018-07-24T14:29:13.868Z,100133
2018-07-24T14:31:42.716Z,100141
2018-07-24T14:34:11.864Z,100128
2018-07-24T14:36:40.703Z,100134
2018-07-24T14:39:09.538Z,100128
2018-07-24T14:41:38.395Z,100129
2018-07-24T14:44:07.241Z,100129
2018-07-24T14:46:36.093Z,100126
2018-07-24T14:49:04.940Z,100130
2018-07-24T14:51:33.782Z,100132
2018-07-24T14:54:02.617Z,100128
2018-07-24T14:56:31.481Z,100127
2018-07-24T14:59:00.333Z,100122
2018-07-24T15:01:29.157Z,100120
2018-07-24T15:03:58.976Z,100127
2018-07-24T15:06:27.587Z,100123
2018-07-24T15:08:56.425Z,100114
2018-07-24T15:11:25.255Z,100125
2018-07-24T15:13:54.100Z,100120
2018-07-24T15:16:22.954Z,100119
2018-07-24T15:18:51.786Z,100114
2018-07-24T15:21:20.623Z,100113
2018-07-24T15:23:49.454Z,100108
2018-07-24T15:26:18.294Z,100106
2018-07-24T15:28:47.189Z,100105
2018-07-24T15:31:15.990Z,100112
2018-07-24T15:33:44.842Z,100115
2018-07-24T15:36:13.700Z,100107
2018-07-24T15:38:42.546Z,100098
2018-07-24T15:41:11.400Z,100103
2018-07-24T15:43:40.238Z,100093
2018-07-24T15:46:09.073Z,100090
2018-07-24T15:48:37.931Z,100095
2018-07-24T15:51:06.757Z,100096
2018-07-24T15:53:35.608Z,100096
2018-07-24T15:56:04.496Z,100090
2018-07-24T15:58:34.038Z,100089
2018-07-24T16:01:02.878Z,100085
2018-07-24T16:03:31.718Z,100081
2018-07-24T16:06:01.325Z,100080
2018-07-24T16:08:30.143Z,100078
2018-07-24T16:10:58.995Z,100076
2018-07-24T16:13:28.572Z,100081
2018-07-24T16:15:57.462Z,100084
2018-07-24T16:18:26.982Z,100081
2018-07-24T16:20:56.562Z,100073
2018-07-24T16:23:25.397Z,100081
2018-07-24T16:25:54.980Z,100084
2018-07-24T16:28:23.814Z,100094
2018-07-24T16:30:52.656Z,100085
2018-07-24T16:33:21.496Z,100088
2018-07-24T16:35:50.330Z,100081
2018-07-24T16:38:19.161Z,100079
2018-07-24T16:40:48.004Z,100077
2018-07-24T16:43:16.862Z,100084
2018-07-24T16:45:45.736Z,100080
2018-07-24T16:48:14.543Z,100086
2018-07-24T16:50:43.379Z,100083
2018-07-24T16:53:12.220Z,100081
2018-07-24T16:55:41.070Z,100081
2018-07-24T16:58:09.905Z,100079
2018-07-24T17:00:38.744Z,100079
2018-07-24T17:03:07.629Z,100081
2018-07-24T17:05:36.431Z,100075
2018-07-24T17:08:06.016Z,100085
2018-07-24T17:10:34.870Z,100077
2018-07-24T17:13:04.464Z,100075
2018-07-24T17:15:33.346Z,100082
2018-07-24T17:18:02.166Z,100077
2018-07-24T17:20:31.003Z,100077
2018-07-24T17:22:59.842Z,100076
2018-07-24T17:25:28.668Z,100079
2018-07-24T17:27:57.515Z,100075
2018-07-24T17:30:26.367Z,100085
2018-07-24T17:32:55.208Z,100080
2018-07-24T17:35:24.110Z,100081
2018-07-24T17:37:52.896Z,100082
2018-07-24T17:40:21.782Z,100084
2018-07-24T17:42:50.590Z,100087
2018-07-24T17:45:19.444Z,100083
2018-07-24T17:47:48.286Z,100086
2018-07-24T17:50:17.130Z,100093
2018-07-24T17:52:45.962Z,100088
2018-07-24T17:55:14.849Z,100089
2018-07-24T17:57:43.657Z,100092
2018-07-24T18:00:12.507Z,100092
2018-07-24T18:02:41.355Z,100087
2018-07-24T18:05:10.201Z,100089
2018-07-24T18:07:39.047Z,100087
2018-07-24T18:10:07.898Z,100090
2018-07-24T18:12:36.738Z,100096
2018-07-24T18:15:05.573Z,100092
2018-07-24T18:17:34.438Z,100094
2018-07-24T18:20:04.023Z,100094
2018-07-24T18:22:32.917Z,100095
2018-07-24T18:25:01.716Z,100086
2018-07-24T18:27:30.558Z,100096
2018-07-24T18:29:59.401Z,100091
2018-07-24T18:32:28.250Z,100098
2018-07-24T18:34:57.085Z,100095
2018-07-24T18:37:25.927Z,100099
2018-07-24T18:39:54.779Z,100103
2018-07-24T18:42:24.367Z,100105
2018-07-24T18:44:53.203Z,100107
2018-07-24T18:47:22.049Z,100101
2018-07-24T18:49:50.905Z,100103
2018-07-24T18:52:19.849Z,100098
2018-07-24T18:54:48.658Z,100107
2018-07-24T18:57:17.496Z,100100
2018-07-24T18:59:46.463Z,100104
2018-07-24T19:02:16.018Z,100102
2018-07-24T19:04:45.603Z,100105
2018-07-24T19:07:14.457Z,100105
2018-07-24T19:09:43.311Z,100101
2018-07-24T19:12:13.058Z,100109
2018-07-24T19:14:41.885Z,100108
2018-07-24T19:17:11.483Z,100115
2018-07-24T19:19:40.325Z,100110
2018-07-24T19:22:09.163Z,100112
2018-07-24T19:24:38.044Z,100124
2018-07-24T19:27:07.139Z,100124
2018-07-24T19:29:36.034Z,100126
2018-07-24T19:32:05.055Z,100128
2018-07-24T19:34:34.199Z,100130
2018-07-24T19:37:03.035Z,100117
2018-07-24T19:39:32.077Z,100132
2018-07-24T19:42:01.849Z,100133
2018-07-24T19:44:31.608Z,100137
2018-07-24T19:47:01.434Z,100133
2018-07-24T19:49:30.401Z,100137
2018-07-24T19:51:59.275Z,100134
2018-07-24T19:54:28.512Z,100135
2018-07-24T19:56:57.372Z,100135
2018-07-24T19:59:26.399Z,100140
2018-07-24T20:01:55.515Z,100140
2018-07-24T20:04:24.422Z,100140
2018-07-24T20:06:53.497Z,100138
2018-07-24T20:09:22.390Z,100138
2018-07-24T20:11:51.318Z,100138
2018-07-24T20:14:20.242Z,100144
2018-07-24T20:16:49.351Z,100141
2018-07-24T20:19:18.201Z,100135
2018-07-24T20:21:47.221Z,100143
2018-07-24T20:24:16.914Z,100140
2018-07-24T20:26:45.729Z,100141
2018-07-24T20:29:14.624Z,100141
2018-07-24T20:31:43.491Z,100139
2018-07-24T20:34:12.375Z,100142
2018-07-24T20:36:41.264Z,100144
2018-07-24T20:39:10.155Z,100141
2018-07-24T20:41:39.047Z,100145
2018-07-24T20:44:07.866Z,100147
2018-07-24T20:46:36.727Z,100149
2018-07-24T20:49:05.568Z,100150
2018-07-24T20:51:34.411Z,100144
2018-07-24T20:54:03.996Z,100143
2018-07-24T20:56:33.593Z,100143
2018-07-24T20:59:02.444Z,100148
2018-07-24T21:01:31.279Z,100155
2018-07-24T21:04:00.126Z,100143
2018-07-24T21:06:28.970Z,100150
2018-07-24T21:08:58.564Z,100153
2018-07-24T21:11:27.407Z,100151
2018-07-24T21:13:56.250Z,100153
2018-07-24T21:16:25.828Z,100147
2018-07-24T21:18:55.260Z,100151
2018-07-24T21:21:24.839Z,100148
2018-07-24T21:23:53.706Z,100149
2018-07-24T21:26:22.541Z,100151
2018-07-24T21:28:51.397Z,100147
2018-07-24T21:31:20.237Z,100162
2018-07-24T21:33:49.063Z,100162
2018-07-24T21:36:17.912Z,100166
2018-07-24T21:38:47.525Z,100162
2018-07-24T21:41:16.352Z,100156
2018-07-24T21:43:45.194Z,100166
2018-07-24T21:46:14.033Z,100159
2018-07-24T21:48:42.869Z,100167
2018-07-24T21:51:11.703Z,100171
2018-07-24T21:53:40.544Z,100172
2018-07-24T21:56:09.441Z,100172
2018-07-24T21:58:38.271Z,100168
2018-07-24T22:01:07.121Z,100175
2018-07-24T22:03:35.962Z,100176
2018-07-24T22:06:04.812Z,100181
2018-07-24T22:08:33.666Z,100178
2018-07-24T22:11:02.495Z,100172
2018-07-24T22:13:31.340Z,100180
2018-07-24T22:16:00.198Z,100171
2018-07-24T22:18:29.043Z,100174
2018-07-24T22:20:58.631Z,100180
2018-07-24T22:23:28.209Z,100180
2018-07-24T22:25:57.039Z,100172
2018-07-24T22:28:26.620Z,100176
2018-07-24T22:30:55.467Z,100180
2018-07-24T22:33:24.317Z,100186
2018-07-24T22:35:53.179Z,100188
2018-07-24T22:38:22.016Z,100189
2018-07-24T22:40:51.603Z,100189
2018-07-24T22:43:20.447Z,100191
2018-07-24T22:45:49.290Z,100195
2018-07-24T22:48:18.875Z,100189
2018-07-24T22:50:47.725Z,100189
2018-07-24T22:53:16.569Z,100183
2018-07-24T22:55:45.425Z,100192
2018-07-24T22:58:14.266Z,100191
2018-07-24T23:00:43.111Z,100193
2018-07-24T23:03:11.950Z,100194
2018-07-24T23:05:40.801Z,100190
2018-07-24T23:08:09.642Z,100194
2018-07-24T23:10:38.491Z,100196
2018-07-24T23:13:07.334Z,100175
2018-07-24T23:15:36.197Z,100194
2018-07-24T23:18:05.020Z,100187
2018-07-24T23:20:33.857Z,100189
2018-07-24T23:23:02.725Z,100186
2018-07-24T23:25:31.532Z,100186
2018-07-24T23:28:01.116Z,100186
2018-07-24T23:30:29.960Z,100197
2018-07-24T23:32:58.798Z,100189
2018-07-24T23:35:27.631Z,100181
2018-07-24T23:37:56.475Z,100186
2018-07-24T23:40:25.898Z,100183
2018-07-24T23:42:55.484Z,100185
2018-07-24T23:45:24.351Z,100181
2018-07-24T23:47:53.215Z,100185
2018-07-24T23:50:22.061Z,100193
2018-07-24T23:52:50.903Z,100190
2018-07-24T23:55:19.752Z,100179
2018-07-24T23:57:48.603Z,100184
